Austin, Texas
Traffic Map
Current Weather Conditions
Austin, Texas
Clear
Clear
82°
Feels Like: 87°
Wind Chill: 82° Ceiling: Unl
Heat Index: 87° Visibility: 10mi
Dew Point: 73° Wind: 5mph
Humidity: 74% Direction: ° ()
Pressure: 29.95in Gusts: 0mph
Raw Report DataKATT 230651Z AUTO VRB04KT 10SM CLR 28/23 A2995 RMK AO2 SLP125 T02780228
Traffic Incident Summary
Active as of:
Severity:
Category:
InformationThere was an issue retrieving the traffic information for this location. Please try a different location or try again shortly.
Advertisements
Track Severe Weather on mobile